Time;durP1;ratioP1;P1;durP2;ratioP2;P2;SDS_P1;SDS_P2;PMS_P1;PMS_P2;Temp;Humidity;BMP_temperature;BMP_pressure;BME280_temperature;BME280_humidity;BME280_pressure;Samples;Min_cycle;Max_cycle;Signal;HPM_P1;HPM_P2
2022/07/19 00:02:28;;;;;;;9.38;1.60;;;;;;;;;;5327086;28;20339;-71
2022/07/19 00:04:59;;;;;;;7.95;1.73;;;;;;;;;;5326645;28;20458;-71
2022/07/19 00:07:30;;;;;;;9.25;1.55;;;;;;;;;;5327250;28;20011;-71
2022/07/19 00:10:03;;;;;;;11.43;2.10;;;;;;;;;;5327231;28;20363;-71
2022/07/19 00:12:34;;;;;;;8.52;2.00;;;;;;;;;;5326860;28;20313;-71
2022/07/19 00:15:07;;;;;;;12.65;1.67;;;;;;;;;;5327357;28;20019;-71
2022/07/19 00:17:40;;;;;;;8.70;2.08;;;;;;;;;;5326286;28;20208;-70
2022/07/19 00:20:12;;;;;;;8.70;2.10;;;;;;;;;;5327152;28;20398;-71
2022/07/19 00:22:43;;;;;;;8.93;1.73;;;;;;;;;;5326884;28;20044;-71
2022/07/19 00:25:15;;;;;;;6.15;1.50;;;;;;;;;;5326196;28;20026;-71
2022/07/19 00:27:46;;;;;;;6.05;1.70;;;;;;;;;;5327059;28;20103;-72
2022/07/19 00:30:17;;;;;;;9.47;1.80;;;;;;;;;;5326892;28;20066;-72
2022/07/19 00:32:48;;;;;;;6.22;1.63;;;;;;;;;;5326076;28;20027;-71
2022/07/19 00:35:20;;;;;;;7.45;1.58;;;;;;;;;;5326533;28;20027;-71
2022/07/19 00:37:51;;;;;;;8.07;1.80;;;;;;;;;;5327257;28;20012;-71
2022/07/19 00:40:22;;;;;;;7.50;1.80;;;;;;;;;;5325639;28;20022;-71
2022/07/19 00:42:55;;;;;;;8.15;1.42;;;;;;;;;;5327029;28;20018;-71
2022/07/19 00:45:26;;;;;;;5.55;1.83;;;;;;;;;;5326200;27;20149;-71
2022/07/19 00:47:57;;;;;;;3.10;1.15;;;;;;;;;;5325910;28;20098;-71
2022/07/19 00:50:29;;;;;;;8.55;1.60;;;;;;;;;;5325942;28;20429;-71
2022/07/19 00:53:04;;;;;;;10.05;1.77;;;;;;;;;;5325510;28;20378;-71
2022/07/19 00:55:35;;;;;;;8.35;1.92;;;;;;;;;;5326201;28;20034;-71
2022/07/19 00:58:06;;;;;;;8.13;1.83;;;;;;;;;;5325862;28;20020;-71
2022/07/19 01:00:38;;;;;;;7.65;1.70;;;;;;;;;;5325409;27;20038;-71
2022/07/19 01:03:12;;;;;;;5.95;1.83;;;;;;;;;;5326309;28;20023;-71
2022/07/19 01:05:45;;;;;;;6.65;1.90;;;;;;;;;;5326232;28;20042;-71
2022/07/19 01:08:16;;;;;;;6.32;2.05;;;;;;;;;;5325186;28;20089;-71
2022/07/19 01:10:47;;;;;;;6.87;2.03;;;;;;;;;;5326033;28;20469;-71
2022/07/19 01:13:18;;;;;;;6.40;1.80;;;;;;;;;;5325923;28;20280;-71
2022/07/19 01:15:49;;;;;;;5.68;1.70;;;;;;;;;;5325348;28;20055;-71
2022/07/19 01:18:20;;;;;;;7.23;1.63;;;;;;;;;;5325706;28;20462;-71
2022/07/19 01:20:52;;;;;;;8.38;2.00;;;;;;;;;;5325414;28;20299;-71
2022/07/19 01:23:23;;;;;;;9.40;1.85;;;;;;;;;;5325195;28;20044;-71
2022/07/19 01:25:54;;;;;;;9.55;2.22;;;;;;;;;;5325862;28;20015;-71
2022/07/19 01:28:26;;;;;;;6.35;2.00;;;;;;;;;;5324624;28;20024;-71
2022/07/19 01:30:57;;;;;;;7.57;1.77;;;;;;;;;;5325969;28;20030;-71
2022/07/19 01:33:28;;;;;;;7.55;2.20;;;;;;;;;;5325332;28;20038;-71
2022/07/19 01:35:59;;;;;;;4.57;1.70;;;;;;;;;;5324633;28;20031;-71
2022/07/19 01:38:31;;;;;;;4.80;1.80;;;;;;;;;;5325392;28;20363;-71
2022/07/19 01:41:02;;;;;;;7.93;2.17;;;;;;;;;;5325744;28;20388;-71
2022/07/19 01:43:33;;;;;;;7.32;1.88;;;;;;;;;;5324595;28;20249;-71
2022/07/19 01:46:05;;;;;;;9.57;2.63;;;;;;;;;;5325261;28;20034;-71
2022/07/19 01:48:36;;;;;;;7.05;2.25;;;;;;;;;;5325200;28;20019;-71
2022/07/19 01:51:07;;;;;;;5.72;1.98;;;;;;;;;;5324645;28;20023;-70
2022/07/19 01:53:38;;;;;;;6.87;2.10;;;;;;;;;;5325259;28;20098;-71
2022/07/19 01:56:10;;;;;;;10.63;2.90;;;;;;;;;;5324349;28;20319;-71
2022/07/19 01:58:41;;;;;;;7.05;2.33;;;;;;;;;;5324942;28;20019;-70
2022/07/19 02:01:12;;;;;;;10.65;3.35;;;;;;;;;;5325162;28;20020;-71
2022/07/19 02:03:43;;;;;;;11.70;3.50;;;;;;;;;;5324324;28;20012;-71
2022/07/19 02:06:14;;;;;;;12.70;2.83;;;;;;;;;;5324968;28;20270;-71
2022/07/19 02:08:46;;;;;;;9.23;2.83;;;;;;;;;;5323854;28;20324;-70
2022/07/19 02:11:35;;;;;;;8.13;2.50;;;;;;;;;;5323886;28;20265;-71
2022/07/19 02:14:08;;;;;;;6.15;2.65;;;;;;;;;;5324916;28;20095;-71
2022/07/19 02:16:39;;;;;;;5.85;2.70;;;;;;;;;;5324844;28;20041;-71
2022/07/19 02:19:10;;;;;;;7.57;2.90;;;;;;;;;;5323835;28;20007;-70
2022/07/19 02:21:42;;;;;;;6.85;3.03;;;;;;;;;;5324522;28;20046;-71
2022/07/19 02:24:13;;;;;;;5.50;3.35;;;;;;;;;;5323561;28;20138;-71
2022/07/19 02:26:44;;;;;;;9.38;3.88;;;;;;;;;;5324592;28;20160;-71
2022/07/19 02:29:15;;;;;;;7.65;3.70;;;;;;;;;;5324175;28;20115;-70
2022/07/19 02:31:47;;;;;;;6.95;2.65;;;;;;;;;;5323722;28;20015;-70
2022/07/19 02:34:18;;;;;;;7.28;2.92;;;;;;;;;;5323862;28;20065;-71
2022/07/19 02:36:49;;;;;;;5.30;2.80;;;;;;;;;;5324467;28;20011;-71
2022/07/19 02:39:20;;;;;;;12.10;3.10;;;;;;;;;;5323198;28;20107;-71
2022/07/19 02:41:51;;;;;;;7.73;3.07;;;;;;;;;;5324507;28;20671;-70
2022/07/19 02:44:23;;;;;;;9.30;3.30;;;;;;;;;;5323823;28;20312;-71
2022/07/19 02:46:54;;;;;;;6.05;2.92;;;;;;;;;;5323522;28;20039;-71
2022/07/19 02:49:25;;;;;;;6.93;3.38;;;;;;;;;;5323824;28;20024;-70
2022/07/19 02:51:56;;;;;;;5.90;3.30;;;;;;;;;;5324457;28;20068;-71
2022/07/19 02:54:27;;;;;;;6.47;2.75;;;;;;;;;;5322923;28;20285;-71
2022/07/19 02:56:59;;;;;;;6.07;3.25;;;;;;;;;;5324239;28;20086;-71
2022/07/19 02:59:30;;;;;;;7.17;3.40;;;;;;;;;;5322765;28;20115;-70
2022/07/19 03:02:01;;;;;;;8.95;3.95;;;;;;;;;;5323895;28;20261;-71
2022/07/19 03:04:32;;;;;;;12.07;3.90;;;;;;;;;;5323693;28;20019;-71
2022/07/19 03:07:04;;;;;;;9.00;3.65;;;;;;;;;;5323074;28;20262;-71
2022/07/19 03:09:35;;;;;;;5.53;3.22;;;;;;;;;;5323688;28;20119;-71
2022/07/19 03:12:06;;;;;;;7.93;3.75;;;;;;;;;;5323871;28;20051;-71
2022/07/19 03:14:37;;;;;;;10.10;4.25;;;;;;;;;;5323043;28;20107;-71
2022/07/19 03:17:09;;;;;;;8.45;4.55;;;;;;;;;;5323863;28;20043;-72
2022/07/19 03:19:40;;;;;;;7.73;4.87;;;;;;;;;;5323522;28;20019;-71
2022/07/19 03:22:11;;;;;;;6.00;4.87;;;;;;;;;;5322650;28;20429;-71
2022/07/19 03:24:42;;;;;;;8.63;4.30;;;;;;;;;;5323745;28;20281;-71
2022/07/19 03:27:13;;;;;;;11.07;5.13;;;;;;;;;;5323564;28;20019;-71
2022/07/19 03:29:45;;;;;;;5.75;5.15;;;;;;;;;;5322907;28;20724;-71
2022/07/19 03:32:16;;;;;;;16.93;5.90;;;;;;;;;;5323689;28;20620;-71
2022/07/19 03:34:47;;;;;;;11.63;5.25;;;;;;;;;;5322692;28;20410;-71
2022/07/19 03:37:18;;;;;;;11.30;5.40;;;;;;;;;;5323456;28;20091;-71
2022/07/19 03:39:49;;;;;;;7.33;5.27;;;;;;;;;;5323945;28;20427;-71
2022/07/19 03:42:20;;;;;;;9.43;4.40;;;;;;;;;;5322485;28;20254;-71
2022/07/19 03:44:52;;;;;;;6.80;3.95;;;;;;;;;;5323673;28;20410;-71
2022/07/19 03:47:24;;;;;;;10.37;5.30;;;;;;;;;;5323024;28;20012;-71
2022/07/19 03:49:56;;;;;;;10.68;5.65;;;;;;;;;;5322943;28;20644;-71
2022/07/19 03:52:27;;;;;;;6.95;4.90;;;;;;;;;;5323300;28;20477;-71
2022/07/19 03:54:59;;;;;;;10.50;5.23;;;;;;;;;;5323666;28;20028;-71
2022/07/19 03:57:30;;;;;;;9.85;5.63;;;;;;;;;;5322351;28;20283;-71
2022/07/19 04:00:02;;;;;;;7.72;5.40;;;;;;;;;;5323545;28;20022;-71
2022/07/19 04:02:34;;;;;;;8.93;5.68;;;;;;;;;;5322654;28;20030;-71
2022/07/19 04:05:05;;;;;;;11.38;5.43;;;;;;;;;;5323272;28;20019;-71
2022/07/19 04:07:36;;;;;;;8.50;6.10;;;;;;;;;;5323055;28;20044;-70
2022/07/19 04:10:08;;;;;;;9.48;5.25;;;;;;;;;;5322402;28;20534;-70
2022/07/19 04:12:39;;;;;;;10.75;6.35;;;;;;;;;;5323079;28;20076;-70
2022/07/19 04:15:10;;;;;;;8.63;6.30;;;;;;;;;;5323028;28;20564;-70
2022/07/19 04:17:41;;;;;;;12.07;5.90;;;;;;;;;;5322375;28;20783;-71
2022/07/19 04:20:12;;;;;;;11.73;6.23;;;;;;;;;;5323002;28;20032;-71
2022/07/19 04:22:44;;;;;;;12.65;6.13;;;;;;;;;;5322887;28;20319;-71
2022/07/19 04:25:15;;;;;;;12.80;6.47;;;;;;;;;;5322488;28;20478;-71
2022/07/19 04:27:47;;;;;;;11.55;6.72;;;;;;;;;;5323149;28;20257;-72
2022/07/19 04:30:18;;;;;;;11.00;6.53;;;;;;;;;;5322819;28;20019;-71
2022/07/19 04:32:49;;;;;;;12.55;6.55;;;;;;;;;;5325341;28;20030;-71
2022/07/19 04:35:20;;;;;;;9.40;6.05;;;;;;;;;;5326198;28;20451;-70
2022/07/19 04:37:52;;;;;;;13.05;6.70;;;;;;;;;;5326391;28;20095;-70
2022/07/19 04:40:23;;;;;;;10.60;6.22;;;;;;;;;;5326492;28;20261;-71
2022/07/19 04:42:54;;;;;;;8.67;6.80;;;;;;;;;;5326889;28;20031;-71
2022/07/19 04:45:25;;;;;;;10.15;5.95;;;;;;;;;;5325334;28;20283;-70
2022/07/19 04:47:57;;;;;;;11.10;6.65;;;;;;;;;;5326947;28;20019;-70
2022/07/19 04:50:28;;;;;;;15.18;6.97;;;;;;;;;;5326183;28;20019;-71
2022/07/19 04:52:59;;;;;;;20.23;7.63;;;;;;;;;;5325644;28;20073;-70
2022/07/19 04:55:30;;;;;;;16.63;7.07;;;;;;;;;;5326250;28;20032;-71
2022/07/19 04:58:01;;;;;;;13.63;7.07;;;;;;;;;;5326232;28;20065;-71
2022/07/19 05:00:33;;;;;;;23.83;7.72;;;;;;;;;;5325358;28;20265;-70
2022/07/19 05:03:05;;;;;;;21.48;7.90;;;;;;;;;;5326391;28;20518;-71
2022/07/19 05:05:36;;;;;;;24.05;9.10;;;;;;;;;;5326213;28;20031;-71
2022/07/19 05:08:07;;;;;;;20.03;7.97;;;;;;;;;;5325299;28;20085;-71
2022/07/19 05:10:38;;;;;;;25.88;7.82;;;;;;;;;;5325756;28;20281;-71
2022/07/19 05:13:10;;;;;;;28.65;8.40;;;;;;;;;;5325351;28;20076;-71
2022/07/19 05:15:41;;;;;;;20.38;8.25;;;;;;;;;;5326050;28;20016;-70
2022/07/19 05:18:12;;;;;;;18.92;8.25;;;;;;;;;;5325681;28;20020;-70
2022/07/19 05:20:44;;;;;;;22.87;9.10;;;;;;;;;;5325052;28;20386;-70
2022/07/19 05:23:15;;;;;;;22.90;9.23;;;;;;;;;;5325498;28;20610;-71
2022/07/19 05:25:46;;;;;;;18.67;8.13;;;;;;;;;;5325791;28;20277;-71
2022/07/19 05:28:17;;;;;;;19.30;8.98;;;;;;;;;;5324670;28;20265;-71
2022/07/19 05:30:48;;;;;;;25.45;8.68;;;;;;;;;;5325411;28;20470;-71
2022/07/19 05:33:19;;;;;;;20.63;8.65;;;;;;;;;;5325138;28;20024;-72
2022/07/19 05:35:51;;;;;;;13.17;8.17;;;;;;;;;;5324993;28;20069;-71
2022/07/19 05:38:22;;;;;;;16.38;7.97;;;;;;;;;;5324837;28;20612;-71
2022/07/19 05:40:53;;;;;;;21.08;8.48;;;;;;;;;;5325292;28;20374;-71
2022/07/19 05:43:24;;;;;;;16.83;8.77;;;;;;;;;;5324573;28;20020;-71
2022/07/19 05:45:56;;;;;;;15.33;8.00;;;;;;;;;;5325409;28;20348;-71
2022/07/19 05:48:27;;;;;;;18.98;8.82;;;;;;;;;;5324134;28;20735;-70
2022/07/19 05:50:58;;;;;;;16.40;9.10;;;;;;;;;;5325587;28;20031;-71
2022/07/19 05:53:29;;;;;;;15.05;8.05;;;;;;;;;;5324872;28;20289;-71
2022/07/19 05:56:00;;;;;;;16.80;9.93;;;;;;;;;;5324107;28;20051;-71
2022/07/19 05:58:32;;;;;;;15.95;8.20;;;;;;;;;;5324735;28;20273;-71
2022/07/19 06:01:19;;;;;;;17.50;7.78;;;;;;;;;;5325070;28;20015;-71
2022/07/19 06:03:52;;;;;;;11.65;7.50;;;;;;;;;;5324565;27;20454;-71
2022/07/19 06:06:23;;;;;;;14.80;7.07;;;;;;;;;;5324660;28;20570;-71
2022/07/19 06:08:55;;;;;;;15.55;7.43;;;;;;;;;;5324918;28;20039;-71
2022/07/19 06:11:27;;;;;;;17.98;7.43;;;;;;;;;;5323745;28;20133;-71
2022/07/19 06:13:58;;;;;;;17.67;6.60;;;;;;;;;;5325083;28;20019;-71
2022/07/19 06:16:29;;;;;;;15.50;7.13;;;;;;;;;;5323569;28;20012;-70
2022/07/19 06:19:00;;;;;;;15.30;6.72;;;;;;;;;;5324575;28;20072;-71
2022/07/19 06:21:32;;;;;;;18.50;7.07;;;;;;;;;;5324561;28;20015;-73
2022/07/19 06:24:04;;;;;;;11.65;5.20;;;;;;;;;;5323525;28;20686;-71
2022/07/19 06:26:35;;;;;;;17.50;5.35;;;;;;;;;;5324440;28;20034;-71
2022/07/19 06:29:06;;;;;;;13.18;4.72;;;;;;;;;;5324286;28;20020;-71
2022/07/19 06:31:37;;;;;;;15.20;5.38;;;;;;;;;;5323621;28;20023;-70
2022/07/19 06:34:08;;;;;;;13.07;4.97;;;;;;;;;;5324585;28;20020;-70
2022/07/19 06:36:40;;;;;;;11.82;4.50;;;;;;;;;;5324223;28;20266;-70
2022/07/19 06:39:11;;;;;;;11.60;4.30;;;;;;;;;;5323470;28;20502;-71
2022/07/19 06:41:42;;;;;;;15.97;4.73;;;;;;;;;;5324119;28;20028;-70
2022/07/19 06:44:13;;;;;;;11.82;3.80;;;;;;;;;;5323179;28;20276;-71
2022/07/19 06:46:45;;;;;;;10.55;4.13;;;;;;;;;;5324198;28;20012;-70
2022/07/19 06:49:16;;;;;;;13.40;3.50;;;;;;;;;;5323927;28;20466;-71
2022/07/19 06:51:47;;;;;;;17.20;4.10;;;;;;;;;;5323184;28;20272;-71
2022/07/19 06:54:18;;;;;;;11.50;3.40;;;;;;;;;;5323197;28;20019;-71
2022/07/19 06:56:49;;;;;;;9.47;2.70;;;;;;;;;;5323853;28;20026;-70
2022/07/19 06:59:20;;;;;;;10.88;2.85;;;;;;;;;;5322781;28;20107;-71
2022/07/19 07:01:52;;;;;;;14.93;3.60;;;;;;;;;;5324128;28;20019;-71
2022/07/19 07:04:23;;;;;;;10.65;2.95;;;;;;;;;;5323508;28;20019;-72
2022/07/19 07:06:55;;;;;;;12.30;3.00;;;;;;;;;;5323133;28;20019;-72
2022/07/19 07:09:26;;;;;;;9.40;2.80;;;;;;;;;;5323253;28;20035;-70
2022/07/19 07:11:57;;;;;;;11.23;2.37;;;;;;;;;;5324013;28;20053;-71
2022/07/19 07:14:28;;;;;;;10.18;2.67;;;;;;;;;;5322586;28;20088;-70
2022/07/19 07:16:59;;;;;;;9.88;2.42;;;;;;;;;;5323486;28;20016;-69
2022/07/19 07:19:30;;;;;;;13.47;2.47;;;;;;;;;;5322468;28;20071;-70
2022/07/19 07:22:02;;;;;;;10.13;2.20;;;;;;;;;;5323377;28;20276;-69
2022/07/19 07:24:33;;;;;;;15.52;2.47;;;;;;;;;;5323559;28;20269;-70
2022/07/19 07:27:04;;;;;;;9.37;1.70;;;;;;;;;;5322441;28;20049;-70
2022/07/19 07:29:35;;;;;;;8.75;1.88;;;;;;;;;;5323305;28;20622;-70
2022/07/19 07:32:07;;;;;;;13.40;1.70;;;;;;;;;;5323157;28;20072;-70
2022/07/19 07:34:38;;;;;;;8.70;1.83;;;;;;;;;;5322782;28;20076;-70
2022/07/19 07:37:09;;;;;;;9.70;1.83;;;;;;;;;;5323504;28;20019;-70
2022/07/19 07:39:40;;;;;;;5.97;1.30;;;;;;;;;;5323030;28;20265;-69
2022/07/19 07:42:12;;;;;;;8.93;1.43;;;;;;;;;;5322845;28;20297;-71
2022/07/19 07:44:43;;;;;;;7.05;1.80;;;;;;;;;;5311664;28;20026;-71
2022/07/19 07:47:14;;;;;;;12.07;1.42;;;;;;;;;;5323177;28;20051;-69
2022/07/19 07:49:46;;;;;;;10.70;1.30;;;;;;;;;;5321656;28;20072;-72
2022/07/19 07:52:17;;;;;;;8.55;1.20;;;;;;;;;;5322656;28;20257;-71
2022/07/19 07:54:48;;;;;;;9.82;1.23;;;;;;;;;;5322271;28;20071;-71
2022/07/19 07:57:20;;;;;;;8.05;1.20;;;;;;;;;;5322487;28;20023;-71
2022/07/19 07:59:51;;;;;;;14.00;1.57;;;;;;;;;;5323584;28;20114;-72
2022/07/19 08:02:22;;;;;;;11.68;1.10;;;;;;;;;;5322098;28;20273;-72
2022/07/19 08:04:53;;;;;;;12.07;1.50;;;;;;;;;;5323458;28;20019;-70
2022/07/19 08:07:24;;;;;;;7.27;1.13;;;;;;;;;;5325215;28;20597;-70
2022/07/19 08:09:57;;;;;;;8.10;1.50;;;;;;;;;;5326465;28;20080;-70
2022/07/19 08:12:28;;;;;;;7.57;1.17;;;;;;;;;;5327038;27;20398;-70
2022/07/19 08:14:59;;;;;;;7.77;0.90;;;;;;;;;;5327040;28;20039;-71
2022/07/19 08:17:31;;;;;;;4.00;1.00;;;;;;;;;;5326121;28;20253;-70
2022/07/19 08:20:02;;;;;;;12.07;1.38;;;;;;;;;;5326693;28;20288;-70
2022/07/19 08:22:33;;;;;;;7.95;1.13;;;;;;;;;;5326702;28;20046;-70
2022/07/19 08:25:05;;;;;;;7.80;1.20;;;;;;;;;;5326211;28;20065;-70
2022/07/19 08:27:36;;;;;;;10.85;1.48;;;;;;;;;;5326736;28;20008;-70
2022/07/19 08:30:07;;;;;;;9.07;1.30;;;;;;;;;;5325659;28;20059;-70
2022/07/19 08:32:39;;;;;;;3.97;1.27;;;;;;;;;;5326630;28;20329;-73
2022/07/19 08:35:10;;;;;;;6.68;1.25;;;;;;;;;;5326489;28;20085;-72
2022/07/19 08:37:41;;;;;;;6.63;1.53;;;;;;;;;;5325778;28;20517;-71
2022/07/19 08:40:13;;;;;;;10.15;1.10;;;;;;;;;;5326336;28;20062;-71
2022/07/19 08:42:45;;;;;;;10.13;1.30;;;;;;;;;;5326191;28;20035;-71
2022/07/19 08:45:16;;;;;;;6.00;1.10;;;;;;;;;;5325499;28;20020;-72
2022/07/19 08:47:48;;;;;;;7.07;1.20;;;;;;;;;;5326315;28;20060;-72
2022/07/19 08:50:19;;;;;;;10.63;1.13;;;;;;;;;;5325886;28;20037;-77
2022/07/19 08:52:51;;;;;;;7.00;1.15;;;;;;;;;;5325687;28;20016;-75
2022/07/19 08:55:22;;;;;;;10.00;1.38;;;;;;;;;;5325781;28;20023;-72
2022/07/19 08:57:57;;;;;;;10.13;1.00;;;;;;;;;;5325477;28;20058;-71
2022/07/19 09:00:29;;;;;;;8.43;0.90;;;;;;;;;;5325537;28;20032;-71
2022/07/19 09:03:01;;;;;;;8.20;0.90;;;;;;;;;;5326085;28;20466;-72
2022/07/19 09:05:33;;;;;;;7.68;1.08;;;;;;;;;;5325199;28;20410;-72
2022/07/19 09:08:04;;;;;;;5.95;1.00;;;;;;;;;;5326083;28;20043;-71
2022/07/19 09:10:40;;;;;;;8.30;1.00;;;;;;;;;;5325954;28;20114;-73
2022/07/19 09:13:13;;;;;;;18.00;1.50;;;;;;;;;;5325030;27;20352;-73
2022/07/19 09:15:49;;;;;;;7.72;1.23;;;;;;;;;;5325953;27;20089;-68
2022/07/19 09:18:25;;;;;;;9.27;1.30;;;;;;;;;;5324768;28;20023;-72
2022/07/19 09:20:58;;;;;;;6.65;1.00;;;;;;;;;;5325276;28;20409;-71
2022/07/19 09:23:29;;;;;;;9.55;0.80;;;;;;;;;;5324211;28;20048;-72
2022/07/19 09:26:02;;;;;;;6.18;0.73;;;;;;;;;;5324695;28;20471;-72
2022/07/19 09:28:34;;;;;;;6.50;0.88;;;;;;;;;;5325208;28;20020;-73
2022/07/19 09:31:07;;;;;;;10.32;1.27;;;;;;;;;;5325224;27;20032;-73
2022/07/19 09:33:45;;;;;;;9.90;1.20;;;;;;;;;;5324716;28;20437;-72
2022/07/19 09:36:16;;;;;;;7.55;0.90;;;;;;;;;;5325383;28;20019;-73
2022/07/19 09:38:50;;;;;;;10.93;0.80;;;;;;;;;;5325314;28;20014;-73
2022/07/19 09:41:22;;;;;;;6.65;1.02;;;;;;;;;;5324062;28;20019;-71
2022/07/19 09:43:54;;;;;;;10.27;1.02;;;;;;;;;;5325454;28;20043;-74
2022/07/19 09:46:33;;;;;;;5.55;0.82;;;;;;;;;;5325089;28;20055;-73
2022/07/19 09:49:05;;;;;;;4.38;0.80;;;;;;;;;;5324571;28;20024;-73
2022/07/19 09:51:38;;;;;;;5.00;0.70;;;;;;;;;;5325020;28;20049;-73
2022/07/19 09:54:10;;;;;;;12.82;1.10;;;;;;;;;;5324465;28;20066;-72
2022/07/19 09:56:43;;;;;;;10.30;0.93;;;;;;;;;;5325056;28;20378;-73
2022/07/19 09:59:14;;;;;;;6.60;0.80;;;;;;;;;;5324826;28;20015;-72
2022/07/19 10:01:48;;;;;;;7.60;1.05;;;;;;;;;;5324027;28;20416;-73
2022/07/19 10:04:20;;;;;;;7.03;1.02;;;;;;;;;;5324414;28;20548;-73
2022/07/19 10:06:52;;;;;;;6.15;0.80;;;;;;;;;;5325260;28;20485;-74
2022/07/19 10:09:23;;;;;;;8.23;0.75;;;;;;;;;;5323665;28;20028;-74
2022/07/19 10:11:55;;;;;;;9.02;0.70;;;;;;;;;;5324865;28;20047;-74
2022/07/19 10:14:26;;;;;;;5.18;0.70;;;;;;;;;;5324257;28;20427;-75
2022/07/19 10:16:57;;;;;;;10.17;1.30;;;;;;;;;;5324039;28;20102;-75
2022/07/19 10:19:33;;;;;;;4.20;0.80;;;;;;;;;;5324345;28;20031;-75
2022/07/19 10:22:06;;;;;;;3.00;0.70;;;;;;;;;;5324499;28;20023;-74
2022/07/19 10:24:47;;;;;;;4.53;0.68;;;;;;;;;;5323595;28;20103;-77
2022/07/19 10:27:25;;;;;;;4.13;0.80;;;;;;;;;;5324073;28;20470;-77
2022/07/19 10:29:56;;;;;;;5.25;0.60;;;;;;;;;;5322967;28;20495;-76
2022/07/19 10:32:28;;;;;;;7.30;0.70;;;;;;;;;;5324020;28;20027;-76
2022/07/19 10:35:19;;;;;;;5.55;0.63;;;;;;;;;;5325666;28;20531;-75
2022/07/19 10:37:52;;;;;;;4.57;0.70;;;;;;;;;;5325499;28;20482;-75
2022/07/19 10:40:42;;;;;;;5.18;0.70;;;;;;;;;;5325085;28;20011;-76
2022/07/19 10:43:14;;;;;;;3.53;0.60;;;;;;;;;;5324064;28;20383;-76
2022/07/19 10:46:04;;;;;;;4.32;0.70;;;;;;;;;;5322992;28;20011;-71
2022/07/19 10:48:38;;;;;;;7.82;1.15;;;;;;;;;;5324075;28;20050;-75
2022/07/19 10:51:28;;;;;;;4.30;0.77;;;;;;;;;;5323136;28;20034;-75
2022/07/19 10:54:00;;;;;;;4.97;0.63;;;;;;;;;;5323926;28;20023;-74
2022/07/19 10:56:35;;;;;;;3.95;0.60;;;;;;;;;;5323624;28;20015;-73
2022/07/19 10:59:07;;;;;;;7.15;0.68;;;;;;;;;;5322961;28;20098;-72
2022/07/19 11:01:53;;;;;;;5.70;0.70;;;;;;;;;;5324054;27;20027;-72
2022/07/19 11:04:26;;;;;;;6.28;0.60;;;;;;;;;;5323269;28;20099;-72
2022/07/19 11:07:12;;;;;;;5.90;1.00;;;;;;;;;;5324400;28;20019;-71
2022/07/19 11:09:51;;;;;;;10.57;0.80;;;;;;;;;;5323864;28;20035;-71
2022/07/19 11:12:22;;;;;;;5.45;0.80;;;;;;;;;;5322680;28;20405;-71
2022/07/19 11:14:53;;;;;;;3.63;0.60;;;;;;;;;;5323968;28;20027;-71
2022/07/19 11:17:25;;;;;;;4.15;0.80;;;;;;;;;;5323256;28;20023;-70
2022/07/19 11:20:10;;;;;;;3.63;0.60;;;;;;;;;;5323320;28;20498;-72
2022/07/19 11:22:43;;;;;;;5.53;0.60;;;;;;;;;;5323541;28;20645;-74
2022/07/19 11:25:16;;;;;;;7.95;0.50;;;;;;;;;;5323372;28;20455;-72
2022/07/19 11:27:47;;;;;;;3.97;0.63;;;;;;;;;;5322655;28;20026;-73
2022/07/19 11:30:20;;;;;;;4.90;0.70;;;;;;;;;;5322932;28;20578;-73
2022/07/19 11:32:52;;;;;;;6.03;0.63;;;;;;;;;;5322994;28;20020;-72
2022/07/19 11:35:24;;;;;;;5.15;0.70;;;;;;;;;;5323015;28;20432;-73
2022/07/19 11:37:56;;;;;;;8.05;6.90;;;;;;;;;;5323512;28;20015;-72
2022/07/19 11:40:35;;;;;;;2.72;0.80;;;;;;;;;;5323220;28;20462;-73
2022/07/19 11:43:07;;;;;;;2.05;0.60;;;;;;;;;;5327498;28;20016;-73
2022/07/19 11:45:46;;;;;;;8.32;0.82;;;;;;;;;;5327789;28;20370;-73
2022/07/19 11:48:24;;;;;;;8.38;0.85;;;;;;;;;;5326574;28;20098;-73
2022/07/19 11:51:08;;;;;;;7.18;0.60;;;;;;;;;;5327950;28;20467;-71
2022/07/19 11:53:39;;;;;;;7.35;0.50;;;;;;;;;;5327034;28;20018;-73
2022/07/19 11:56:18;;;;;;;4.25;0.60;;;;;;;;;;5327279;28;20463;-73
2022/07/19 11:58:50;;;;;;;4.75;0.50;;;;;;;;;;5327738;28;20016;-73
2022/07/19 12:01:34;;;;;;;3.83;0.70;;;;;;;;;;5326516;28;20102;-72
2022/07/19 12:04:09;;;;;;;4.53;0.50;;;;;;;;;;5327398;27;20039;-73
2022/07/19 12:06:48;;;;;;;2.42;0.68;;;;;;;;;;5327334;28;20019;-73
2022/07/19 12:09:27;;;;;;;6.68;0.68;;;;;;;;;;5326070;28;20027;-73
2022/07/19 12:11:58;;;;;;;7.35;0.70;;;;;;;;;;5327361;28;20107;-73
2022/07/19 12:14:33;;;;;;;8.10;0.60;;;;;;;;;;5325032;28;20114;-74
2022/07/19 12:17:12;;;;;;;3.05;0.63;;;;;;;;;;5324946;28;20032;-73
2022/07/19 12:19:44;;;;;;;2.95;0.50;;;;;;;;;;5325929;28;20027;-74
2022/07/19 12:22:35;;;;;;;4.65;0.70;;;;;;;;;;5325430;28;20043;-74
2022/07/19 12:25:07;;;;;;;5.35;0.50;;;;;;;;;;5326409;28;20012;-75
2022/07/19 12:27:40;;;;;;;3.25;0.70;;;;;;;;;;5327030;27;20024;-74
2022/07/19 12:30:17;;;;;;;2.75;0.40;;;;;;;;;;5325867;28;20428;-74
2022/07/19 12:32:49;;;;;;;8.88;0.50;;;;;;;;;;5326790;28;20019;-74
2022/07/19 12:35:21;;;;;;;5.05;0.50;;;;;;;;;;5326814;28;20031;-74
2022/07/19 12:38:02;;;;;;;2.00;0.40;;;;;;;;;;5326127;28;20012;-74
2022/07/19 12:40:34;;;;;;;10.85;0.50;;;;;;;;;;5325748;28;20030;-73
2022/07/19 12:43:06;;;;;;;4.68;0.52;;;;;;;;;;5325460;28;20423;-73
2022/07/19 12:45:39;;;;;;;3.72;0.40;;;;;;;;;;5325640;27;20050;-74
2022/07/19 12:48:11;;;;;;;5.80;0.52;;;;;;;;;;5325982;27;20168;-75
2022/07/19 12:50:44;;;;;;;8.23;0.82;;;;;;;;;;5325402;28;20052;-74
2022/07/19 12:53:16;;;;;;;5.03;0.45;;;;;;;;;;5325727;28;20016;-73
2022/07/19 12:55:48;;;;;;;2.83;0.40;;;;;;;;;;5326484;28;20535;-73
2022/07/19 13:01:11;;;;;;;4.38;0.50;;;;;;;;;;5326204;28;20023;-74
2022/07/19 13:03:43;;;;;;;5.20;0.60;;;;;;;;;;5326454;28;20094;-73
2022/07/19 13:06:14;;;;;;;7.47;0.60;;;;;;;;;;5325565;28;20022;-73
2022/07/19 13:08:45;;;;;;;4.60;0.60;;;;;;;;;;5326139;28;20054;-72
2022/07/19 13:11:16;;;;;;;3.13;0.50;;;;;;;;;;5325072;28;20122;-73
2022/07/19 13:13:48;;;;;;;5.73;0.50;;;;;;;;;;5325950;28;20012;-73
2022/07/19 13:16:21;;;;;;;4.23;0.57;;;;;;;;;;5325813;28;20146;-72
2022/07/19 13:18:53;;;;;;;3.30;0.50;;;;;;;;;;5325567;28;20038;-74
2022/07/19 13:21:25;;;;;;;3.60;0.60;;;;;;;;;;5325619;28;20016;-74
2022/07/19 13:23:56;;;;;;;4.70;0.77;;;;;;;;;;5325553;28;20398;-74
2022/07/19 13:26:28;;;;;;;12.80;0.80;;;;;;;;;;5324748;28;20032;-73
2022/07/19 13:28:59;;;;;;;7.25;0.70;;;;;;;;;;5326086;28;20031;-73
2022/07/19 13:31:30;;;;;;;7.87;0.80;;;;;;;;;;5325897;28;20023;-74
2022/07/19 13:34:02;;;;;;;6.28;0.70;;;;;;;;;;5324808;28;20023;-73
2022/07/19 13:36:33;;;;;;;4.70;0.80;;;;;;;;;;5325523;28;20129;-74
2022/07/19 13:39:05;;;;;;;8.30;1.10;;;;;;;;;;5325314;28;20019;-74
2022/07/19 13:41:37;;;;;;;12.25;0.90;;;;;;;;;;5324596;28;20474;-72
2022/07/19 13:44:08;;;;;;;4.82;0.70;;;;;;;;;;5325507;27;20046;-74
2022/07/19 13:46:39;;;;;;;5.68;0.70;;;;;;;;;;5324567;28;20095;-72
2022/07/19 13:49:10;;;;;;;6.20;0.85;;;;;;;;;;5325115;28;20028;-70
2022/07/19 13:51:41;;;;;;;3.13;0.67;;;;;;;;;;5325544;28;20012;-70
2022/07/19 13:54:13;;;;;;;6.27;0.80;;;;;;;;;;5324414;28;20054;-70
2022/07/19 13:56:45;;;;;;;7.97;0.90;;;;;;;;;;5324992;28;20037;-69
2022/07/19 13:59:16;;;;;;;5.17;0.60;;;;;;;;;;5325028;28;20451;-70
2022/07/19 14:01:47;;;;;;;4.63;0.50;;;;;;;;;;5324246;28;20296;-69
2022/07/19 14:04:18;;;;;;;5.70;0.63;;;;;;;;;;5324466;28;20471;-70
2022/07/19 14:06:49;;;;;;;11.35;0.73;;;;;;;;;;5325238;28;20613;-70
2022/07/19 14:09:21;;;;;;;7.93;0.70;;;;;;;;;;5323589;28;20413;-70
2022/07/19 14:11:52;;;;;;;6.17;0.63;;;;;;;;;;5325026;28;20827;-69
2022/07/19 14:14:23;;;;;;;11.00;0.93;;;;;;;;;;5323526;28;20024;-70
2022/07/19 14:16:54;;;;;;;6.47;0.60;;;;;;;;;;5325000;28;20027;-69
2022/07/19 14:19:25;;;;;;;6.27;0.70;;;;;;;;;;5324367;28;20432;-69
2022/07/19 14:21:57;;;;;;;8.43;0.80;;;;;;;;;;5323960;28;20012;-69
2022/07/19 14:24:28;;;;;;;8.50;0.82;;;;;;;;;;5323999;28;20543;-69
2022/07/19 14:26:59;;;;;;;5.30;0.60;;;;;;;;;;5324719;28;20092;-67
2022/07/19 14:29:31;;;;;;;5.43;0.60;;;;;;;;;;5323514;28;20035;-69
2022/07/19 14:32:02;;;;;;;2.93;0.40;;;;;;;;;;5324496;28;20357;-68
2022/07/19 14:34:33;;;;;;;5.10;0.50;;;;;;;;;;5324385;28;20023;-69
2022/07/19 14:37:05;;;;;;;6.73;0.60;;;;;;;;;;5323250;28;20319;-72
2022/07/19 14:39:36;;;;;;;9.35;1.42;;;;;;;;;;5324581;28;20519;-73
2022/07/19 14:42:07;;;;;;;6.80;0.60;;;;;;;;;;5324221;28;20016;-73
2022/07/19 14:44:38;;;;;;;13.02;0.70;;;;;;;;;;5323355;28;20024;-72
2022/07/19 14:47:09;;;;;;;5.15;0.70;;;;;;;;;;5324030;28;20099;-71
2022/07/19 14:49:41;;;;;;;11.47;0.80;;;;;;;;;;5323032;28;20035;-73
2022/07/19 14:52:12;;;;;;;7.37;0.60;;;;;;;;;;5323786;28;20106;-72
2022/07/19 14:54:43;;;;;;;4.65;0.50;;;;;;;;;;5323829;28;20023;-74
2022/07/19 14:57:14;;;;;;;8.67;0.60;;;;;;;;;;5322955;28;20098;-73
2022/07/19 14:59:45;;;;;;;7.23;0.93;;;;;;;;;;5323785;28;20106;-77
2022/07/19 15:02:17;;;;;;;8.93;0.70;;;;;;;;;;5323329;28;20024;-71
2022/07/19 15:04:49;;;;;;;5.88;0.50;;;;;;;;;;5322030;28;20024;-70
2022/07/19 15:07:20;;;;;;;3.55;0.55;;;;;;;;;;5322156;28;20098;-71
2022/07/19 15:09:51;;;;;;;8.67;0.70;;;;;;;;;;5322815;28;20024;-70
2022/07/19 15:12:23;;;;;;;3.67;0.63;;;;;;;;;;5321940;28;20016;-71